Time;durP1;ratioP1;P1;durP2;ratioP2;P2;SDS_P1;SDS_P2;PMS_P1;PMS_P2;Temp;Humidity;BMP_temperature;BMP_pressure;BME280_temperature;BME280_humidity;BME280_pressure;Samples;Min_cycle;Max_cycle;Signal;HPM_P1;HPM_P2
2022/01/01 00:02:15;;;;;;;134.23;69.07;;;;;;;12.84;76.65;102368.28;4936753;28;20464;-59
2022/01/01 00:04:42;;;;;;;228.10;99.05;;;;;;;12.84;76.42;102358.72;4946427;28;20144;-58
2022/01/01 00:07:08;;;;;;;297.75;120.38;;;;;;;12.76;76.61;102348.88;4941861;28;20197;-60
2022/01/01 00:09:33;;;;;;;163.07;82.78;;;;;;;12.75;76.85;102352.31;4928575;28;20073;-59
2022/01/01 00:11:59;;;;;;;149.60;74.88;;;;;;;12.76;76.94;102349.75;4941627;28;20039;-60
2022/01/01 00:14:24;;;;;;;155.85;77.03;;;;;;;12.79;76.85;102336.78;4951665;28;20035;-60
2022/01/01 00:16:49;;;;;;;145.55;71.95;;;;;;;12.84;76.88;102339.50;4940552;28;20046;-59
2022/01/01 00:19:15;;;;;;;135.15;67.63;;;;;;;12.86;76.70;102341.34;4953751;28;20035;-59
2022/01/01 00:21:41;;;;;;;138.93;62.50;;;;;;;12.87;76.83;102344.81;4933739;28;20651;-59
2022/01/01 00:24:06;;;;;;;125.75;56.83;;;;;;;12.89;76.67;102337.88;4936728;28;20062;-59
2022/01/01 00:26:32;;;;;;;115.28;52.70;;;;;;;12.89;77.08;102348.38;4940615;28;20051;-59
2022/01/01 00:28:57;;;;;;;116.70;53.90;;;;;;;12.86;76.90;102346.56;4935719;28;20185;-59
2022/01/01 00:31:23;;;;;;;106.22;48.78;;;;;;;12.94;76.80;102347.63;4954481;28;20046;-61
2022/01/01 00:33:48;;;;;;;105.70;46.55;;;;;;;12.91;77.02;102354.53;4939211;28;20047;-61
2022/01/01 00:36:14;;;;;;;107.72;46.03;;;;;;;12.94;77.27;102351.97;4934229;28;20089;-60
2022/01/01 00:38:39;;;;;;;116.97;48.25;;;;;;;12.95;77.23;102354.66;4943000;28;20038;-59
2022/01/01 00:41:04;;;;;;;106.20;46.45;;;;;;;12.99;77.12;102343.41;4957520;28;20039;-59
2022/01/01 00:43:30;;;;;;;108.53;45.55;;;;;;;12.96;77.01;102348.56;4928042;28;20115;-60
2022/01/01 00:45:56;;;;;;;106.70;43.90;;;;;;;12.96;76.91;102345.06;4939847;28;20149;-59
2022/01/01 00:48:21;;;;;;;100.45;42.97;;;;;;;12.90;77.17;102334.44;4942530;28;20154;-59
2022/01/01 00:50:47;;;;;;;105.03;41.28;;;;;;;12.89;77.30;102338.78;4944819;28;20039;-60
2022/01/01 00:53:12;;;;;;;103.63;40.78;;;;;;;12.84;77.21;102343.00;4943468;28;20574;-58
2022/01/01 00:55:38;;;;;;;107.35;42.70;;;;;;;12.81;77.17;102335.06;4933783;28;20047;-59
2022/01/01 00:58:03;;;;;;;106.55;40.75;;;;;;;12.73;77.47;102349.69;4955712;28;20026;-59
2022/01/01 01:00:28;;;;;;;98.75;38.72;;;;;;;12.72;77.63;102355.75;4942656;28;21063;-59
2022/01/01 01:02:54;;;;;;;113.28;43.55;;;;;;;12.69;77.91;102358.28;4938741;28;20477;-60
2022/01/01 01:05:20;;;;;;;125.80;45.97;;;;;;;12.66;77.78;102367.78;4941971;28;20038;-60
2022/01/01 01:07:46;;;;;;;129.45;45.28;;;;;;;12.59;77.98;102367.59;4939854;28;20423;-60
2022/01/01 01:10:13;;;;;;;109.55;42.15;;;;;;;12.60;77.76;102373.72;4939827;28;20081;-60
2022/01/01 01:12:43;;;;;;;132.40;43.55;;;;;;;12.68;78.08;102376.56;4947400;28;20310;-60
2022/01/01 01:15:11;;;;;;;107.80;38.13;;;;;;;12.82;78.55;102377.81;4942281;28;20715;-60
2022/01/01 01:17:37;;;;;;;100.95;34.03;;;;;;;12.86;78.18;102383.22;4927978;28;20507;-60
2022/01/01 01:20:04;;;;;;;102.28;35.03;;;;;;;12.92;78.09;102375.53;4942738;28;20079;-59
2022/01/01 01:22:29;;;;;;;98.05;32.63;;;;;;;12.97;78.08;102373.91;4934328;28;20050;-61
2022/01/01 01:24:55;;;;;;;103.30;31.67;;;;;;;13.00;78.29;102378.34;4927416;28;20093;-58
2022/01/01 01:27:20;;;;;;;86.43;30.30;;;;;;;13.05;78.11;102370.63;4938846;28;20921;-59
2022/01/01 01:29:46;;;;;;;86.93;29.10;;;;;;;13.09;78.39;102375.97;4938293;28;20098;-60
2022/01/01 01:32:12;;;;;;;80.32;28.92;;;;;;;13.17;78.13;102376.22;4936723;28;20054;-60
2022/01/01 01:34:38;;;;;;;79.25;27.40;;;;;;;13.12;78.26;102381.31;4937675;28;20126;-59
2022/01/01 01:37:03;;;;;;;71.28;26.25;;;;;;;13.22;78.35;102383.34;4942278;28;20057;-60
2022/01/01 01:39:28;;;;;;;63.88;23.02;;;;;;;13.29;78.00;102380.06;4928384;28;20125;-60
2022/01/01 01:41:54;;;;;;;69.32;23.33;;;;;;;13.27;77.91;102362.50;4960665;28;20046;-60
2022/01/01 01:44:33;;;;;;;76.68;28.75;;;;;;;13.28;77.99;102378.28;4934723;28;20491;-60
2022/01/01 01:47:00;;;;;;;56.67;21.63;;;;;;;13.40;78.02;102382.94;4939881;28;20097;-60
2022/01/01 01:49:26;;;;;;;54.85;20.58;;;;;;;13.45;77.90;102376.09;4935672;28;20050;-62
2022/01/01 01:51:51;;;;;;;55.70;20.55;;;;;;;13.54;77.79;102386.78;4941305;28;20070;-61
2022/01/01 01:54:17;;;;;;;53.88;20.50;;;;;;;13.55;77.57;102387.66;4939754;28;20065;-60
2022/01/01 01:56:44;;;;;;;54.55;19.92;;;;;;;13.59;77.48;102377.31;4941843;28;20140;-60
2022/01/01 01:59:10;;;;;;;49.05;18.90;;;;;;;13.64;77.28;102374.81;4934429;28;20039;-60
2022/01/01 02:01:35;;;;;;;48.20;18.83;;;;;;;13.62;77.42;102376.50;4932533;28;20059;-60
2022/01/01 02:04:01;;;;;;;54.83;18.92;;;;;;;13.67;77.46;102374.88;4942755;28;20461;-60
2022/01/01 02:06:26;;;;;;;49.08;17.60;;;;;;;13.70;77.33;102368.00;4929712;28;21457;-59
2022/01/01 02:08:52;;;;;;;49.90;17.83;;;;;;;13.74;77.22;102369.81;4939837;28;20560;-60
2022/01/01 02:11:19;;;;;;;49.05;18.38;;;;;;;13.78;77.04;102363.78;4945492;28;20491;-60
2022/01/01 02:14:47;;;;;;;48.33;19.38;;;;;;;13.78;77.21;102363.78;4936015;28;21717;-60
2022/01/01 02:16:50;;;;;;;42.63;15.77;;;;;;;13.77;77.11;102354.19;4925979;28;20098;-60
2022/01/01 02:19:27;;;;;;;43.60;15.23;;;;;;;13.76;77.20;102352.41;4947223;28;20486;-60
2022/01/01 02:21:55;;;;;;;43.65;15.65;;;;;;;13.71;77.01;102348.81;4945305;28;20050;-60
2022/01/01 02:24:21;;;;;;;42.33;14.40;;;;;;;13.73;76.89;102354.94;4948401;28;20053;-61
2022/01/01 02:26:47;;;;;;;43.15;13.93;;;;;;;13.79;77.04;102351.56;4945614;28;20647;-59
2022/01/01 02:29:12;;;;;;;41.83;14.25;;;;;;;13.80;77.01;102362.09;4948579;28;20575;-60
2022/01/01 02:31:37;;;;;;;45.38;14.32;;;;;;;13.86;77.23;102357.84;4934799;28;20161;-60
2022/01/01 02:34:05;;;;;;;52.80;17.90;;;;;;;13.90;77.14;102359.72;4943834;28;20046;-59
2022/01/01 02:36:36;;;;;;;59.25;20.20;;;;;;;13.98;76.93;102363.38;4942780;28;20043;-59
2022/01/01 02:39:20;;;;;;;47.90;17.63;;;;;;;13.97;76.88;102367.75;4930911;28;20609;-61
2022/01/01 02:41:48;;;;;;;43.65;15.57;;;;;;;13.91;76.86;102357.09;4937999;28;20038;-60
2022/01/01 02:44:13;;;;;;;53.63;18.67;;;;;;;14.03;76.71;102364.38;4944948;28;20054;-59
2022/01/01 02:46:39;;;;;;;53.72;19.88;;;;;;;14.04;76.61;102369.66;4944270;28;20070;-61
2022/01/01 02:49:05;;;;;;;51.25;18.92;;;;;;;14.07;76.68;102366.22;4945509;28;20038;-61
2022/01/01 02:51:31;;;;;;;40.85;16.45;;;;;;;14.07;76.35;102368.84;4951141;28;20187;-60
2022/01/01 02:53:56;;;;;;;43.65;15.00;;;;;;;14.04;76.10;102363.53;4943468;28;20054;-60
2022/01/01 02:56:22;;;;;;;46.22;15.57;;;;;;;14.05;76.15;102358.31;4944082;28;20051;-61
2022/01/01 02:58:47;;;;;;;46.85;14.35;;;;;;;14.06;76.24;102362.72;4937628;28;20041;-60
2022/01/01 03:01:13;;;;;;;41.58;15.65;;;;;;;14.06;76.29;102356.59;4944200;28;20071;-60
2022/01/01 03:03:38;;;;;;;45.67;17.30;;;;;;;14.09;76.26;102359.25;4939397;28;20051;-59
2022/01/01 03:06:04;;;;;;;41.95;16.30;;;;;;;14.06;76.10;102360.09;4945182;28;20573;-60
2022/01/01 03:08:29;;;;;;;50.45;18.05;;;;;;;14.11;75.93;102362.81;4938154;28;20051;-59
2022/01/01 03:10:55;;;;;;;44.78;17.38;;;;;;;14.07;76.26;102358.38;4942792;28;20034;-59
2022/01/01 03:13:20;;;;;;;42.20;17.80;;;;;;;14.16;76.17;102350.69;4945961;28;20038;-60
2022/01/01 03:15:46;;;;;;;43.55;16.65;;;;;;;14.20;75.96;102352.53;4938212;28;20968;-60
2022/01/01 03:18:12;;;;;;;43.70;16.25;;;;;;;14.22;75.88;102346.47;4943779;28;20637;-60
2022/01/01 03:20:37;;;;;;;42.47;15.68;;;;;;;14.16;75.55;102346.31;4946122;28;20047;-59
2022/01/01 03:23:03;;;;;;;40.92;16.10;;;;;;;14.00;75.56;102336.34;4944734;28;20042;-60
2022/01/01 03:25:29;;;;;;;45.20;18.45;;;;;;;13.90;75.14;102334.38;4935975;28;20561;-60
2022/01/01 03:27:54;;;;;;;46.00;18.92;;;;;;;13.80;75.38;102342.88;4936463;28;20528;-61
2022/01/01 03:30:19;;;;;;;49.08;20.42;;;;;;;13.69;75.92;102344.34;4947190;28;20184;-59
2022/01/01 03:32:45;;;;;;;50.38;19.17;;;;;;;13.64;76.17;102340.75;4944837;28;20121;-61
2022/01/01 03:35:12;;;;;;;50.55;19.00;;;;;;;13.66;76.53;102331.19;4943416;28;20086;-60
2022/01/01 03:37:37;;;;;;;46.78;17.90;;;;;;;13.63;76.67;102341.59;4936142;28;20594;-60
2022/01/01 03:40:05;;;;;;;41.55;16.88;;;;;;;13.68;76.74;102342.59;4943475;28;20142;-59
2022/01/01 03:42:31;;;;;;;37.13;15.40;;;;;;;13.58;76.44;102341.50;4938164;28;20127;-60
2022/01/01 03:44:56;;;;;;;42.38;16.83;;;;;;;13.52;76.79;102343.06;4940217;28;20042;-59
2022/01/01 03:47:22;;;;;;;41.65;14.88;;;;;;;13.45;76.92;102341.13;4940140;28;20051;-59
2022/01/01 03:49:49;;;;;;;44.83;14.80;;;;;;;13.42;77.08;102348.94;4945868;28;20399;-60
2022/01/01 03:52:15;;;;;;;40.15;14.07;;;;;;;13.37;76.73;102346.19;4939931;28;20474;-60
2022/01/01 03:54:40;;;;;;;38.90;14.18;;;;;;;13.37;77.23;102348.78;4942441;28;20544;-60
2022/01/01 03:57:05;;;;;;;38.40;14.20;;;;;;;13.37;77.12;102340.94;4936031;28;20128;-59
2022/01/01 03:59:31;;;;;;;43.38;14.80;;;;;;;13.37;77.15;102351.41;4931843;28;20066;-59
2022/01/01 04:01:56;;;;;;;42.58;15.48;;;;;;;13.38;77.67;102343.59;4942812;28;20485;-60
2022/01/01 04:04:22;;;;;;;39.75;15.63;;;;;;;13.47;77.68;102358.69;4941949;28;20470;-59
2022/01/01 04:06:48;;;;;;;42.35;14.77;;;;;;;13.54;77.54;102357.97;4942244;28;20074;-59
2022/01/01 04:09:14;;;;;;;37.90;15.27;;;;;;;13.58;77.59;102359.81;4943133;28;20051;-61
2022/01/01 04:11:40;;;;;;;38.95;14.57;;;;;;;13.66;77.42;102357.41;4924452;28;20239;-59
2022/01/01 04:14:05;;;;;;;39.15;14.77;;;;;;;13.70;77.58;102347.03;4935189;28;20430;-60
2022/01/01 04:16:30;;;;;;;37.25;15.27;;;;;;;13.81;77.44;102358.63;4936249;28;20074;-61
2022/01/01 04:18:56;;;;;;;39.35;14.32;;;;;;;13.89;77.23;102339.59;4934308;28;20165;-59
2022/01/01 04:21:23;;;;;;;35.17;14.50;;;;;;;13.94;76.86;102345.81;4940145;28;20048;-60
2022/01/01 04:23:48;;;;;;;31.92;14.23;;;;;;;13.96;76.79;102347.63;4940453;28;21761;-59
2022/01/01 04:26:14;;;;;;;30.85;13.80;;;;;;;13.97;77.04;102357.25;4942990;28;20142;-59
2022/01/01 04:28:41;;;;;;;34.63;13.57;;;;;;;13.97;76.19;102362.50;4931669;28;20053;-60
2022/01/01 04:31:06;;;;;;;33.17;13.50;;;;;;;13.98;76.08;102369.50;4940502;28;20109;-59
2022/01/01 04:33:32;;;;;;;30.70;13.15;;;;;;;14.04;76.18;102368.78;4928203;28;20125;-60
2022/01/01 04:35:57;;;;;;;31.48;13.55;;;;;;;14.02;76.02;102375.72;4944338;28;20039;-60
2022/01/01 04:41:01;;;;;;;27.40;12.70;;;;;;;14.06;75.70;102388.06;4945428;28;20489;-59
2022/01/01 04:43:26;;;;;;;26.65;12.25;;;;;;;14.05;75.49;102375.78;4929994;28;20145;-58
2022/01/01 04:45:52;;;;;;;26.92;12.70;;;;;;;14.10;75.63;102377.66;4941837;28;20035;-59
2022/01/01 04:48:17;;;;;;;27.08;12.25;;;;;;;14.10;75.17;102369.78;4940284;28;20169;-60
2022/01/01 04:50:42;;;;;;;27.33;12.48;;;;;;;14.11;75.21;102371.56;4943899;28;20126;-59
2022/01/01 04:53:13;;;;;;;27.50;12.10;;;;;;;14.03;75.18;102367.00;4941804;28;20058;-58
2022/01/01 04:55:38;;;;;;;25.00;11.43;;;;;;;14.14;74.69;102368.16;4936426;28;20043;-59
2022/01/01 04:58:04;;;;;;;26.05;11.00;;;;;;;14.07;74.58;102361.88;4934642;28;20054;-59
2022/01/01 05:00:29;;;;;;;28.23;12.25;;;;;;;14.00;74.67;102357.34;4938846;28;20390;-60
2022/01/01 05:02:55;;;;;;;30.25;11.85;;;;;;;13.95;74.98;102363.31;4937270;28;20093;-59
2022/01/01 05:05:20;;;;;;;26.73;11.55;;;;;;;13.94;75.10;102359.81;4950256;28;20508;-59
2022/01/01 05:07:45;;;;;;;24.38;11.30;;;;;;;13.92;74.93;102352.75;4928723;28;22360;-59
2022/01/01 05:10:11;;;;;;;29.15;11.10;;;;;;;13.92;74.91;102350.13;4941521;28;20517;-59
2022/01/01 05:12:36;;;;;;;25.75;11.20;;;;;;;13.90;75.22;102350.13;4943251;28;20059;-59
2022/01/01 05:15:02;;;;;;;25.92;10.80;;;;;;;13.94;74.91;102353.69;4926383;28;20054;-59
2022/01/01 05:17:27;;;;;;;26.00;10.90;;;;;;;13.99;75.05;102338.94;4935966;28;20442;-62
2022/01/01 05:19:53;;;;;;;25.58;11.10;;;;;;;14.00;74.36;102348.59;4940985;28;20038;-59
2022/01/01 05:22:18;;;;;;;23.10;10.95;;;;;;;13.87;74.29;102352.66;4933671;28;20042;-59
2022/01/01 05:24:44;;;;;;;23.38;10.80;;;;;;;13.74;74.13;102348.84;4941317;28;20559;-59
2022/01/01 05:27:09;;;;;;;25.42;11.40;;;;;;;13.63;74.38;102344.22;4944799;28;20880;-60
2022/01/01 05:29:34;;;;;;;26.15;11.68;;;;;;;13.63;74.65;102342.47;4931279;28;20110;-60
2022/01/01 05:32:00;;;;;;;26.05;11.52;;;;;;;13.61;74.76;102343.28;4938483;28;20403;-59
2022/01/01 05:34:25;;;;;;;27.98;11.73;;;;;;;13.62;75.43;102332.84;4940820;28;20139;-60
2022/01/01 05:36:50;;;;;;;27.65;11.40;;;;;;;13.65;75.46;102326.78;4941305;28;20371;-61
2022/01/01 05:39:16;;;;;;;25.58;12.18;;;;;;;13.67;75.53;102325.06;4942515;28;20451;-61
2022/01/01 05:41:42;;;;;;;25.83;10.90;;;;;;;13.65;75.36;102318.94;4935044;28;20636;-62
2022/01/01 05:44:07;;;;;;;21.95;9.98;;;;;;;13.67;75.24;102325.97;4933040;28;20537;-60
2022/01/01 05:46:33;;;;;;;25.42;10.32;;;;;;;13.62;74.97;102339.81;4941501;28;20157;-59
2022/01/01 05:48:58;;;;;;;26.48;10.65;;;;;;;13.58;75.11;102330.13;4942325;28;20047;-59
2022/01/01 05:51:24;;;;;;;20.88;10.02;;;;;;;13.49;75.44;102337.72;4938623;28;20042;-59
2022/01/01 05:53:49;;;;;;;24.02;10.50;;;;;;;13.43;75.76;102334.97;4939469;28;20158;-59
2022/01/01 05:56:21;;;;;;;22.15;9.98;;;;;;;13.45;75.08;102334.16;4938137;28;20532;-58
2022/01/01 05:58:46;;;;;;;25.15;10.15;;;;;;;13.47;75.73;102336.84;4945330;28;20383;-59
2022/01/01 06:01:11;;;;;;;24.50;9.57;;;;;;;13.46;75.87;102342.91;4939550;28;20101;-61
2022/01/01 06:03:37;;;;;;;22.80;9.70;;;;;;;13.48;75.87;102336.00;4935398;28;20053;-59
2022/01/01 06:06:02;;;;;;;26.95;9.50;;;;;;;13.55;76.40;102345.75;4940942;28;20070;-59
2022/01/01 06:08:28;;;;;;;26.02;10.10;;;;;;;13.59;75.80;102343.25;4939106;28;20328;-59
2022/01/01 06:10:55;;;;;;;25.33;9.30;;;;;;;13.64;75.88;102338.13;4943181;28;20058;-60
2022/01/01 06:13:20;;;;;;;17.52;8.93;;;;;;;13.72;75.86;102352.31;4927898;28;20203;-60
2022/01/01 06:15:45;;;;;;;20.70;9.05;;;;;;;13.79;75.43;102343.72;4935665;28;20043;-59
2022/01/01 06:18:11;;;;;;;24.55;9.48;;;;;;;13.86;75.08;102350.00;4941649;28;20127;-59
2022/01/01 06:20:37;;;;;;;22.50;8.90;;;;;;;13.94;74.92;102345.81;4940188;28;20050;-59
2022/01/01 06:23:06;;;;;;;17.20;8.27;;;;;;;13.92;74.47;102344.88;4934840;28;20517;-59
2022/01/01 06:25:33;;;;;;;19.02;8.45;;;;;;;13.97;74.54;102341.50;4934754;28;20031;-59
2022/01/01 06:27:58;;;;;;;17.30;7.55;;;;;;;14.03;74.39;102346.00;4927720;28;20074;-59
2022/01/01 06:30:23;;;;;;;18.58;7.90;;;;;;;13.99;74.17;102339.81;4934735;28;20709;-61
2022/01/01 06:32:51;;;;;;;21.30;7.82;;;;;;;13.98;74.07;102342.41;4955302;28;20038;-61
2022/01/01 06:35:16;;;;;;;20.63;7.68;;;;;;;14.00;73.80;102346.84;4943735;28;20157;-59
2022/01/01 06:37:42;;;;;;;17.75;7.13;;;;;;;14.05;73.63;102347.84;4929567;28;20643;-59
2022/01/01 06:40:08;;;;;;;23.48;7.55;;;;;;;14.06;73.42;102343.47;4934732;28;20640;-60
2022/01/01 06:42:33;;;;;;;19.23;6.93;;;;;;;14.06;73.53;102347.00;4946112;28;20318;-60
2022/01/01 06:44:58;;;;;;;16.25;6.90;;;;;;;14.11;73.24;102345.34;4940325;28;20059;-59
2022/01/01 06:47:25;;;;;;;18.48;6.97;;;;;;;14.11;73.27;102347.06;4931077;28;20043;-60
2022/01/01 06:49:50;;;;;;;15.52;7.03;;;;;;;14.11;73.11;102344.47;4935184;28;20467;-59
2022/01/01 06:52:15;;;;;;;22.90;7.07;;;;;;;14.10;73.21;102347.94;4941553;28;20066;-60
2022/01/01 06:54:41;;;;;;;17.52;6.97;;;;;;;14.12;72.91;102341.88;4944708;28;20644;-60
2022/01/01 06:57:08;;;;;;;14.88;6.40;;;;;;;14.16;72.75;102353.31;4942283;28;20524;-61
2022/01/01 06:59:33;;;;;;;15.77;6.90;;;;;;;14.10;72.98;102343.56;4934059;28;20058;-59
2022/01/01 07:01:59;;;;;;;15.65;7.03;;;;;;;14.05;72.96;102354.81;4941669;28;20080;-60
2022/01/01 07:04:24;;;;;;;14.00;6.65;;;;;;;14.13;72.94;102350.63;4930934;28;20424;-60
2022/01/01 07:06:50;;;;;;;15.57;7.03;;;;;;;14.11;72.81;102347.97;4939849;28;20809;-59
2022/01/01 07:09:15;;;;;;;19.15;7.55;;;;;;;14.11;72.78;102355.84;4947169;28;20114;-60
2022/01/01 07:11:42;;;;;;;16.13;6.75;;;;;;;14.12;72.76;102348.84;4938277;28;20544;-60
2022/01/01 07:14:08;;;;;;;14.52;7.18;;;;;;;14.16;72.64;102348.06;4957744;28;20121;-60
2022/01/01 07:16:33;;;;;;;19.73;7.78;;;;;;;14.12;72.68;102347.13;4938935;28;20118;-61
2022/01/01 07:18:58;;;;;;;20.83;8.95;;;;;;;14.12;72.52;102344.50;4945947;28;20066;-60
2022/01/01 07:21:24;;;;;;;17.92;9.07;;;;;;;14.19;72.49;102350.78;4939162;28;20043;-60
2022/01/01 07:23:49;;;;;;;19.55;9.13;;;;;;;14.15;72.44;102356.78;4933604;28;20244;-60
2022/01/01 07:26:15;;;;;;;19.27;8.80;;;;;;;14.15;72.50;102367.28;4945449;28;20058;-61
2022/01/01 07:28:40;;;;;;;18.08;8.57;;;;;;;14.14;72.44;102358.53;4944311;28;20050;-60
2022/01/01 07:31:05;;;;;;;21.10;8.90;;;;;;;14.12;72.55;102359.34;4945266;28;20383;-58
2022/01/01 07:33:31;;;;;;;17.95;8.80;;;;;;;14.16;72.31;102367.31;4932540;28;20478;-59
2022/01/01 07:35:56;;;;;;;17.92;8.35;;;;;;;14.09;72.44;102369.75;4945388;28;20191;-59
2022/01/01 07:38:22;;;;;;;21.45;8.77;;;;;;;14.09;72.35;102368.03;4934124;28;20049;-59
2022/01/01 07:40:49;;;;;;;19.50;8.63;;;;;;;14.07;72.42;102369.75;4943872;28;20046;-60
2022/01/01 07:43:15;;;;;;;20.27;9.77;;;;;;;14.07;72.40;102371.47;4942187;28;20049;-59
2022/01/01 07:45:41;;;;;;;19.20;8.65;;;;;;;14.02;72.46;102360.88;4939054;28;20038;-59
2022/01/01 07:48:07;;;;;;;18.70;9.02;;;;;;;14.03;72.50;102369.59;4943958;28;20042;-59
2022/01/01 07:50:33;;;;;;;24.58;9.68;;;;;;;13.98;72.73;102360.75;4945675;28;20149;-60
2022/01/01 07:52:59;;;;;;;20.35;9.15;;;;;;;13.94;72.94;102372.03;4944993;28;20412;-60
2022/01/01 07:55:24;;;;;;;18.55;9.02;;;;;;;14.00;72.68;102357.34;4935719;28;20522;-63
2022/01/01 07:57:50;;;;;;;21.45;9.20;;;;;;;13.99;72.61;102359.91;4938017;28;20055;-60
2022/01/01 08:00:15;;;;;;;17.40;9.20;;;;;;;14.00;72.55;102359.97;4933354;28;20517;-59
2022/01/01 08:02:45;;;;;;;19.08;8.93;;;;;;;14.01;72.60;102353.88;4943739;28;20049;-59
2022/01/01 08:05:12;;;;;;;18.75;8.93;;;;;;;14.00;72.70;102366.94;4938758;28;20489;-59
2022/01/01 08:07:38;;;;;;;22.25;10.05;;;;;;;13.95;73.01;102369.47;4938736;28;20433;-59
2022/01/01 08:10:05;;;;;;;21.48;9.80;;;;;;;13.88;72.99;102371.91;4944191;28;20043;-59
2022/01/01 08:12:31;;;;;;;23.02;9.48;;;;;;;13.96;72.93;102378.22;4941214;28;20331;-60
2022/01/01 08:14:57;;;;;;;24.55;9.98;;;;;;;13.95;72.86;102379.06;4945624;28;20096;-60
2022/01/01 08:17:23;;;;;;;21.98;11.13;;;;;;;14.01;72.85;102381.81;4941522;28;20430;-60
2022/01/01 08:19:49;;;;;;;21.08;11.00;;;;;;;14.02;72.65;102384.50;4929165;28;20495;-58
2022/01/01 08:22:14;;;;;;;21.67;12.55;;;;;;;14.00;72.63;102385.28;4945377;28;20051;-59
2022/01/01 08:24:40;;;;;;;21.55;11.38;;;;;;;14.07;72.68;102385.47;4942284;28;20757;-60
2022/01/01 08:27:06;;;;;;;20.90;10.02;;;;;;;14.15;72.35;102383.91;4945171;28;20118;-60
2022/01/01 08:29:32;;;;;;;21.95;11.15;;;;;;;14.16;72.23;102380.41;4927993;28;20666;-58
2022/01/01 08:31:57;;;;;;;27.23;11.00;;;;;;;14.12;72.04;102381.22;4947420;28;20517;-58
2022/01/01 08:34:23;;;;;;;24.52;11.18;;;;;;;14.08;72.46;102365.38;4936749;28;20058;-59
2022/01/01 08:36:48;;;;;;;20.98;10.75;;;;;;;14.12;72.40;102361.97;4942528;28;20221;-60
2022/01/01 08:39:15;;;;;;;20.65;10.35;;;;;;;13.98;72.66;102348.53;4937688;28;20050;-59
2022/01/01 08:41:40;;;;;;;19.05;10.20;;;;;;;14.00;72.36;102346.84;4927140;28;20046;-60
2022/01/01 08:44:05;;;;;;;20.60;10.75;;;;;;;13.99;72.24;102345.06;4940228;28;20348;-59
2022/01/01 08:46:31;;;;;;;21.85;10.38;;;;;;;13.94;72.58;102338.84;4936321;28;20050;-59
2022/01/01 08:48:56;;;;;;;22.33;10.77;;;;;;;13.91;72.74;102343.13;4940948;28;20607;-59
2022/01/01 08:51:22;;;;;;;21.75;10.68;;;;;;;13.92;72.79;102331.78;4939264;28;20097;-59
2022/01/01 08:53:48;;;;;;;20.95;10.82;;;;;;;13.86;72.90;102334.25;4938211;28;20054;-60
2022/01/01 08:56:14;;;;;;;23.58;10.93;;;;;;;13.88;72.95;102337.81;4939011;28;20869;-59
2022/01/01 08:58:39;;;;;;;23.80;11.23;;;;;;;13.83;73.23;102337.72;4940838;28;20147;-60
2022/01/01 09:01:05;;;;;;;23.63;11.18;;;;;;;13.90;73.03;102330.88;4937695;28;20570;-59
2022/01/01 09:03:34;;;;;;;22.73;11.32;;;;;;;13.82;73.17;102330.69;4938077;28;20482;-60
2022/01/01 09:06:00;;;;;;;21.13;10.77;;;;;;;13.94;72.69;102330.09;4932768;28;20042;-59
2022/01/01 09:08:26;;;;;;;23.88;10.90;;;;;;;13.91;73.10;102333.50;4943387;28;20058;-59
2022/01/01 09:10:51;;;;;;;27.05;10.88;;;;;;;13.86;73.09;102332.53;4941519;28;20105;-59
2022/01/01 09:13:16;;;;;;;21.88;10.95;;;;;;;13.99;72.81;102336.31;4943484;28;20710;-60
2022/01/01 09:15:42;;;;;;;24.15;11.20;;;;;;;14.03;72.61;102330.28;4935321;28;20121;-59
2022/01/01 09:18:08;;;;;;;21.13;11.77;;;;;;;13.99;72.57;102315.34;4932002;28;20093;-59
2022/01/01 09:20:33;;;;;;;22.15;11.63;;;;;;;14.00;72.32;102314.50;4943829;28;20078;-59
2022/01/01 09:22:58;;;;;;;23.70;11.63;;;;;;;13.86;72.77;102306.31;4936420;28;20149;-59
2022/01/01 09:25:24;;;;;;;25.60;12.73;;;;;;;13.86;73.12;102302.81;4940742;28;20594;-59
2022/01/01 09:27:49;;;;;;;26.45;12.63;;;;;;;13.93;72.88;102296.84;4938916;28;20050;-60
2022/01/01 09:30:15;;;;;;;25.52;12.52;;;;;;;13.92;73.33;102293.34;4941468;28;20046;-60
2022/01/01 09:32:40;;;;;;;25.63;12.93;;;;;;;14.02;72.82;102297.97;4943178;28;20045;-59
2022/01/01 09:35:07;;;;;;;29.42;14.75;;;;;;;14.12;72.19;102289.44;4941792;28;20390;-59
2022/01/01 09:37:32;;;;;;;40.08;17.13;;;;;;;14.01;72.23;102280.44;4934273;28;20334;-60
2022/01/01 09:39:59;;;;;;;40.65;18.58;;;;;;;13.99;72.32;102286.50;4928864;28;20584;-61
2022/01/01 09:42:25;;;;;;;50.42;21.27;;;;;;;13.85;72.66;102291.44;4939659;28;20344;-59
2022/01/01 09:44:51;;;;;;;49.15;20.92;;;;;;;13.72;73.38;102292.88;4941650;28;20057;-59
2022/01/01 09:47:17;;;;;;;43.38;20.35;;;;;;;13.74;73.46;102303.41;4938882;28;20137;-60
2022/01/01 09:49:42;;;;;;;44.83;20.17;;;;;;;13.80;73.36;102311.41;4932401;28;20701;-60
2022/01/01 09:52:09;;;;;;;46.45;20.98;;;;;;;13.60;74.12;102297.84;4940998;28;20130;-59
2022/01/01 09:54:35;;;;;;;44.90;19.85;;;;;;;13.73;73.78;102305.16;4940125;28;20497;-60
2022/01/01 09:57:00;;;;;;;48.33;20.55;;;;;;;13.76;73.77;102310.47;4933524;28;20039;-60
2022/01/01 09:59:26;;;;;;;44.38;20.48;;;;;;;13.69;73.99;102298.06;4936694;28;20158;-59
2022/01/01 10:01:51;;;;;;;45.85;20.55;;;;;;;13.78;73.93;102300.88;4932744;28;20097;-59
2022/01/01 10:04:16;;;;;;;47.30;20.73;;;;;;;13.80;74.17;102308.78;4941057;28;20526;-60
2022/01/01 10:06:43;;;;;;;47.47;20.98;;;;;;;13.86;73.88;102306.31;4954812;28;20121;-59
2022/01/01 10:09:09;;;;;;;50.13;21.13;;;;;;;13.88;73.69;102307.25;4941678;28;20046;-59
2022/01/01 10:11:35;;;;;;;47.40;20.30;;;;;;;13.71;74.50;102306.88;4934463;28;20050;-59
2022/01/01 10:14:06;;;;;;;50.85;21.27;;;;;;;13.78;74.21;102316.63;4938968;28;20071;-60
2022/01/01 10:16:31;;;;;;;48.67;21.20;;;;;;;13.84;74.31;102310.66;4935738;28;20039;-61
2022/01/01 10:18:57;;;;;;;49.80;21.55;;;;;;;13.82;74.34;102310.63;4935309;28;20105;-60
2022/01/01 10:21:27;;;;;;;53.00;21.50;;;;;;;13.88;74.21;102309.88;4925182;28;20054;-60
2022/01/01 10:23:56;;;;;;;51.95;21.90;;;;;;;13.96;74.05;102308.31;4942152;28;20437;-60
2022/01/01 10:29:15;;;;;;;49.08;21.58;;;;;;;13.93;74.06;102302.09;4936163;28;20050;-59
2022/01/01 10:32:07;;;;;;;47.80;21.88;;;;;;;14.07;73.97;102300.66;4936301;28;20051;-60
2022/01/01 10:34:40;;;;;;;48.75;21.10;;;;;;;14.16;73.60;102306.09;4939474;28;20941;-60
2022/01/01 10:37:06;;;;;;;46.00;21.30;;;;;;;14.11;73.66;102294.63;4960663;28;20054;-60
2022/01/01 10:39:31;;;;;;;42.65;20.30;;;;;;;14.03;73.95;102304.94;4938182;28;20035;-60
2022/01/01 10:41:59;;;;;;;47.38;20.73;;;;;;;14.18;73.85;102292.19;4945756;28;20053;-59
2022/01/01 10:44:33;;;;;;;43.40;20.30;;;;;;;14.26;73.43;102287.09;4942048;28;20131;-60
2022/01/01 10:47:01;;;;;;;42.67;19.98;;;;;;;14.26;73.63;102288.84;4939979;28;20375;-60
2022/01/01 10:52:35;;;;;;;39.37;19.40;;;;;;;14.39;73.28;102286.53;4940362;28;20150;-60
2022/01/01 10:55:02;;;;;;;38.28;19.35;;;;;;;14.50;73.10;102292.00;4943986;28;20483;-60
2022/01/01 10:57:35;;;;;;;38.75;17.65;;;;;;;14.51;72.91;102278.91;4939552;28;20570;-61
2022/01/01 11:00:11;;;;;;;35.95;18.00;;;;;;;14.50;72.68;102282.38;4943913;28;20579;-60
2022/01/01 11:02:38;;;;;;;36.45;18.25;;;;;;;14.61;72.47;102280.84;4958440;28;20522;-59
2022/01/01 11:05:04;;;;;;;36.97;18.20;;;;;;;14.75;72.30;102273.22;4938652;28;20051;-59
2022/01/01 11:07:30;;;;;;;36.78;18.25;;;;;;;14.60;72.32;102268.56;4937639;28;20043;-60
2022/01/01 11:09:56;;;;;;;34.10;16.77;;;;;;;14.69;72.30;102272.22;4944170;28;20039;-60
2022/01/01 11:12:24;;;;;;;37.55;17.13;;;;;;;14.83;72.27;102275.97;4944049;28;20051;-60
2022/01/01 11:14:51;;;;;;;34.90;17.40;;;;;;;14.84;71.67;102255.00;4939687;28;20042;-60